createdAt,value
2019-02-28T00:01:21.864Z,24.92
2019-02-28T00:03:52.095Z,24.05
2019-02-28T00:06:22.298Z,23.32
2019-02-28T00:08:53.643Z,25.43
2019-02-28T00:11:24.378Z,23.38
2019-02-28T00:13:55.999Z,23.30
2019-02-28T00:16:26.823Z,22.50
2019-02-28T00:18:57.093Z,21.00
2019-02-28T00:21:27.322Z,22.52
2019-02-28T00:23:57.555Z,24.50
2019-02-28T00:26:28.325Z,24.05
2019-02-28T00:29:00.517Z,23.05
2019-02-28T00:31:31.035Z,21.85
2019-02-28T00:34:04.294Z,21.02
2019-02-28T00:36:33.422Z,21.87
2019-02-28T00:39:04.217Z,22.30
2019-02-28T00:41:35.804Z,23.05
2019-02-28T00:44:06.425Z,23.25
2019-02-28T00:46:36.715Z,20.92
2019-02-28T00:49:06.931Z,23.75
2019-02-28T00:51:37.213Z,23.62
2019-02-28T00:54:08.564Z,23.55
2019-02-28T00:56:39.881Z,22.75
2019-02-28T00:59:10.141Z,23.80
2019-02-28T01:01:43.129Z,22.75
2019-02-28T01:04:13.821Z,22.00
2019-02-28T01:06:44.078Z,24.63
2019-02-28T01:09:14.786Z,21.87
2019-02-28T01:11:48.127Z,22.98
2019-02-28T01:14:18.688Z,22.42
2019-02-28T01:16:50.239Z,22.05
2019-02-28T01:19:20.801Z,22.85
2019-02-28T01:21:51.014Z,20.65
2019-02-28T01:24:21.246Z,23.12
2019-02-28T01:26:51.870Z,23.27
2019-02-28T01:29:22.124Z,23.38
2019-02-28T01:31:52.255Z,22.17
2019-02-28T01:34:22.454Z,20.08
2019-02-28T01:36:52.808Z,24.37
2019-02-28T01:39:23.011Z,23.07
2019-02-28T01:41:53.135Z,22.65
2019-02-28T01:44:23.730Z,23.62
2019-02-28T01:46:53.919Z,23.42
2019-02-28T01:49:26.006Z,21.57
2019-02-28T01:51:56.345Z,21.55
2019-02-28T01:54:27.722Z,21.10
2019-02-28T01:56:58.414Z,22.95
2019-02-28T01:59:28.603Z,23.40
2019-02-28T02:01:58.725Z,22.07
2019-02-28T02:04:28.925Z,21.65
2019-02-28T02:06:59.810Z,22.20
2019-02-28T02:09:30.926Z,22.70
2019-02-28T02:12:01.484Z,22.80
2019-02-28T02:14:32.130Z,22.50
2019-02-28T02:17:02.372Z,23.73
2019-02-28T02:19:32.969Z,22.05
2019-02-28T02:22:08.959Z,23.70
2019-02-28T02:24:35.384Z,23.52
2019-02-28T02:27:05.655Z,22.75
2019-02-28T02:29:36.407Z,22.07
2019-02-28T02:32:07.382Z,23.02
2019-02-28T02:34:37.575Z,20.43
2019-02-28T02:37:08.223Z,21.75
2019-02-28T02:39:38.359Z,20.92
2019-02-28T02:42:11.299Z,23.42
2019-02-28T02:44:40.381Z,22.55
2019-02-28T02:47:10.589Z,23.85
2019-02-28T02:49:40.735Z,22.93
2019-02-28T02:52:11.405Z,26.20
2019-02-28T02:54:41.598Z,23.73
2019-02-28T02:57:13.931Z,23.95
2019-02-28T02:59:43.561Z,23.07
2019-02-28T03:02:14.115Z,24.27
2019-02-28T03:04:44.748Z,23.38
2019-02-28T03:07:23.023Z,22.75
2019-02-28T03:09:47.201Z,23.07
2019-02-28T03:12:17.407Z,21.95
2019-02-28T03:14:48.702Z,24.07
2019-02-28T03:17:19.521Z,22.90
2019-02-28T03:19:49.770Z,23.85
2019-02-28T03:22:19.954Z,21.90
2019-02-28T03:24:51.008Z,21.57
2019-02-28T03:27:21.972Z,22.90
2019-02-28T03:29:52.502Z,23.10
2019-02-28T03:32:22.811Z,24.05
2019-02-28T03:34:57.789Z,23.67
2019-02-28T03:37:24.833Z,21.50
2019-02-28T03:40:02.664Z,21.80
2019-02-28T03:42:28.961Z,21.45
2019-02-28T03:44:59.049Z,22.55
2019-02-28T03:47:30.326Z,21.75
2019-02-28T03:50:00.550Z,23.32
2019-02-28T03:52:30.820Z,22.85
2019-02-28T03:55:03.375Z,23.50
2019-02-28T03:57:33.814Z,21.45
2019-02-28T04:00:06.024Z,21.93
2019-02-28T04:02:36.298Z,23.12
2019-02-28T04:05:07.889Z,22.60
2019-02-28T04:07:38.146Z,23.52
2019-02-28T04:10:10.444Z,23.57
2019-02-28T04:12:45.198Z,22.40
2019-02-28T04:15:17.256Z,23.07
2019-02-28T04:17:47.525Z,22.85
2019-02-28T04:20:17.699Z,21.70
2019-02-28T04:22:48.212Z,23.02
2019-02-28T04:25:23.031Z,22.85
2019-02-28T04:27:50.303Z,21.62
2019-02-28T04:30:20.507Z,22.25
2019-02-28T04:32:50.765Z,23.27
2019-02-28T04:35:24.276Z,24.27
2019-02-28T04:37:53.080Z,24.25
2019-02-28T04:40:24.000Z,24.57
2019-02-28T04:42:55.538Z,25.08
2019-02-28T04:45:26.442Z,25.57
2019-02-28T04:47:57.212Z,26.12
2019-02-28T04:50:31.234Z,26.85
2019-02-28T04:52:59.249Z,24.47
2019-02-28T04:55:30.646Z,26.62
2019-02-28T04:58:01.356Z,29.10
2019-02-28T05:00:31.550Z,25.90
2019-02-28T05:03:01.762Z,30.48
2019-02-28T05:05:31.957Z,28.30
2019-02-28T05:08:05.786Z,31.62
2019-02-28T05:10:34.028Z,37.67
2019-02-28T05:13:04.316Z,35.58
2019-02-28T05:15:37.401Z,33.75
2019-02-28T05:18:06.327Z,33.50
2019-02-28T05:20:36.610Z,34.30
2019-02-28T05:23:06.817Z,37.10
2019-02-28T05:25:37.462Z,32.95
2019-02-28T05:28:07.725Z,33.60
2019-02-28T05:30:37.941Z,28.75
2019-02-28T05:33:08.454Z,30.90
2019-02-28T05:35:38.658Z,29.23
2019-02-28T05:38:09.270Z,29.77
2019-02-28T05:40:41.331Z,30.55
2019-02-28T05:43:12.060Z,31.27
2019-02-28T05:45:42.689Z,26.95
2019-02-28T05:48:12.897Z,25.70
2019-02-28T05:50:43.172Z,26.95
2019-02-28T05:53:13.455Z,25.10
2019-02-28T05:55:43.663Z,27.52
2019-02-28T05:58:17.578Z,26.42
2019-02-28T06:00:45.727Z,24.52
2019-02-28T06:03:16.190Z,24.15
2019-02-28T06:05:47.116Z,25.90
2019-02-28T06:08:17.223Z,24.57
2019-02-28T06:10:47.775Z,30.23
2019-02-28T06:13:18.308Z,31.25
2019-02-28T06:15:49.451Z,31.65
2019-02-28T06:18:19.657Z,28.73
2019-02-28T06:20:51.439Z,28.45
2019-02-28T06:23:22.155Z,29.20
2019-02-28T06:25:52.353Z,28.85
2019-02-28T06:28:22.566Z,31.27
2019-02-28T06:30:53.131Z,31.77
2019-02-28T06:33:23.362Z,30.82
2019-02-28T06:35:54.452Z,30.77
2019-02-28T06:38:24.891Z,29.50
2019-02-28T06:40:55.112Z,32.13
2019-02-28T06:43:25.275Z,31.57
2019-02-28T06:45:55.501Z,32.83
2019-02-28T06:48:26.643Z,33.23
2019-02-28T06:50:57.002Z,30.72
2019-02-28T06:53:30.757Z,33.53
2019-02-28T06:56:00.328Z,33.20
2019-02-28T06:58:33.227Z,33.35
2019-02-28T07:01:02.354Z,33.83
2019-02-28T07:03:35.142Z,32.00
2019-02-28T07:06:04.360Z,32.10
2019-02-28T07:08:34.563Z,32.70
2019-02-28T07:11:04.814Z,35.95
2019-02-28T07:13:39.008Z,35.08
2019-02-28T07:16:06.861Z,38.70
2019-02-28T07:18:37.131Z,34.65
2019-02-28T07:21:08.626Z,35.35
2019-02-28T07:23:38.971Z,37.98
2019-02-28T07:26:09.195Z,38.15
2019-02-28T07:28:39.399Z,38.78
2019-02-28T07:31:09.637Z,47.23
2019-02-28T07:33:41.249Z,45.70
2019-02-28T07:36:12.114Z,43.02
2019-02-28T07:38:42.311Z,43.68
2019-02-28T07:41:12.426Z,43.20
2019-02-28T07:43:45.918Z,41.05
2019-02-28T07:46:14.440Z,39.90
2019-02-28T07:48:44.663Z,38.23
2019-02-28T07:51:14.871Z,43.15
2019-02-28T07:53:45.150Z,44.00
2019-02-28T07:56:15.319Z,46.60
2019-02-28T07:58:45.846Z,47.93
2019-02-28T08:01:18.421Z,44.27
2019-02-28T08:03:48.714Z,44.67
2019-02-28T08:06:19.420Z,47.27
2019-02-28T08:08:49.600Z,48.87
2019-02-28T08:11:20.613Z,54.35
2019-02-28T08:13:51.071Z,52.60
2019-02-28T08:16:21.345Z,55.48
2019-02-28T08:18:52.435Z,57.98
2019-02-28T08:21:23.271Z,55.75
2019-02-28T08:23:53.552Z,56.20
2019-02-28T08:26:23.776Z,57.00
2019-02-28T08:28:53.965Z,59.42
2019-02-28T08:31:24.083Z,58.02
2019-02-28T08:33:54.355Z,53.17
2019-02-28T08:36:24.676Z,54.45
2019-02-28T08:38:55.236Z,48.58
2019-02-28T08:41:26.394Z,54.55
2019-02-28T08:43:56.674Z,55.55
2019-02-28T08:46:26.986Z,47.25
2019-02-28T08:48:57.176Z,50.50
2019-02-28T08:51:27.816Z,49.03
2019-02-28T08:53:59.546Z,50.03
2019-02-28T08:56:32.076Z,48.05
2019-02-28T08:59:11.370Z,48.68
2019-02-28T09:01:34.411Z,46.95
2019-02-28T09:04:05.731Z,48.60
2019-02-28T09:06:37.818Z,45.23
2019-02-28T09:09:10.215Z,47.45
2019-02-28T09:11:40.583Z,41.60
2019-02-28T09:14:10.804Z,43.25
2019-02-28T09:16:40.997Z,45.52
2019-02-28T09:19:11.488Z,42.25
2019-02-28T09:21:42.800Z,42.62
2019-02-28T09:24:13.658Z,43.90
2019-02-28T09:26:46.161Z,41.68
2019-02-28T09:29:18.351Z,37.20
2019-02-28T09:31:49.058Z,34.00
2019-02-28T09:34:19.328Z,30.57
2019-02-28T09:36:55.455Z,30.08
2019-02-28T09:39:21.462Z,31.40
2019-02-28T09:41:51.702Z,33.30
2019-02-28T09:44:21.988Z,33.50
2019-02-28T09:46:52.186Z,33.83
2019-02-28T09:49:22.387Z,36.80
2019-02-28T09:51:52.599Z,36.08
2019-02-28T09:54:24.375Z,39.75
2019-02-28T09:56:54.644Z,41.25
2019-02-28T09:59:24.890Z,41.13
2019-02-28T10:02:01.361Z,45.05
2019-02-28T10:04:30.347Z,44.38
2019-02-28T10:06:59.540Z,46.13
2019-02-28T10:09:29.807Z,51.65
2019-02-28T10:11:59.983Z,46.95
2019-02-28T10:14:30.196Z,45.83
2019-02-28T10:17:00.415Z,48.65
2019-02-28T10:19:30.675Z,42.03
2019-02-28T10:22:00.890Z,45.70
2019-02-28T10:24:32.366Z,46.10
2019-02-28T10:27:03.489Z,45.67
2019-02-28T10:29:34.322Z,42.85
2019-02-28T10:32:06.170Z,45.45
2019-02-28T10:34:36.378Z,45.28
2019-02-28T10:37:06.625Z,44.58
2019-02-28T10:39:36.816Z,37.05
2019-02-28T10:42:07.459Z,47.70
2019-02-28T10:44:37.718Z,40.43
2019-02-28T10:47:07.999Z,45.00
2019-02-28T10:49:38.742Z,28.12
2019-02-28T10:52:09.008Z,38.83
2019-02-28T10:54:39.294Z,38.55
2019-02-28T10:57:09.922Z,39.70
2019-02-28T10:59:40.195Z,32.20
2019-02-28T11:02:13.518Z,32.70
2019-02-28T11:04:43.906Z,28.87
2019-02-28T11:07:14.263Z,32.90
2019-02-28T11:09:44.846Z,27.45
2019-02-28T11:12:19.746Z,39.35
2019-02-28T11:14:46.919Z,42.83
2019-02-28T11:17:17.615Z,48.58
2019-02-28T11:19:48.516Z,50.15
2019-02-28T11:22:20.216Z,51.23
2019-02-28T11:24:50.914Z,52.23
2019-02-28T11:27:22.968Z,54.10
2019-02-28T11:29:53.112Z,55.90
2019-02-28T11:32:26.398Z,57.00
2019-02-28T11:34:55.505Z,54.95
2019-02-28T11:37:25.876Z,57.67
2019-02-28T11:39:56.600Z,55.80
2019-02-28T11:42:31.138Z,56.92
2019-02-28T11:45:00.961Z,59.77
2019-02-28T11:47:31.755Z,58.38
2019-02-28T11:50:04.649Z,57.03
2019-02-28T11:52:34.281Z,62.00
2019-02-28T11:55:07.028Z,64.72
2019-02-28T11:57:41.222Z,64.00
2019-02-28T12:00:19.825Z,61.53
2019-02-28T12:02:53.287Z,61.25
2019-02-28T12:05:22.466Z,59.45
2019-02-28T12:07:52.768Z,60.75
2019-02-28T12:10:23.084Z,58.60
2019-02-28T12:12:53.335Z,57.33
2019-02-28T12:15:31.969Z,57.62
2019-02-28T12:18:04.730Z,58.42
2019-02-28T12:20:35.173Z,55.55
2019-02-28T12:23:05.382Z,56.37
2019-02-28T12:25:35.642Z,53.95
2019-02-28T12:28:06.883Z,55.23
2019-02-28T12:30:37.340Z,53.58
2019-02-28T12:33:07.607Z,52.85
2019-02-28T12:35:40.538Z,55.05
2019-02-28T12:38:09.707Z,54.65
2019-02-28T12:40:42.502Z,52.30
2019-02-28T12:43:14.566Z,53.85
2019-02-28T12:45:48.335Z,54.13
2019-02-28T12:48:18.994Z,52.80
2019-02-28T12:50:49.245Z,52.13
2019-02-28T12:53:24.279Z,53.70
2019-02-28T12:55:51.537Z,50.98
2019-02-28T12:58:22.562Z,57.03
2019-02-28T13:00:56.394Z,52.88
2019-02-28T13:03:24.907Z,51.95
2019-02-28T13:05:55.618Z,56.85
2019-02-28T13:08:25.971Z,51.63
2019-02-28T13:11:03.145Z,56.50
2019-02-28T13:13:28.972Z,56.13
2019-02-28T13:15:59.911Z,55.38
2019-02-28T13:18:30.240Z,52.93
2019-02-28T13:21:00.407Z,52.95
2019-02-28T13:23:32.912Z,54.77
2019-02-28T13:26:02.688Z,53.52
2019-02-28T13:28:34.290Z,55.25
2019-02-28T13:31:04.958Z,55.15
2019-02-28T13:33:35.288Z,55.23
2019-02-28T13:36:05.575Z,55.38
2019-02-28T13:38:37.229Z,55.40
2019-02-28T13:41:07.493Z,56.00
2019-02-28T13:43:37.707Z,54.65
2019-02-28T13:46:07.870Z,52.83
2019-02-28T13:48:38.066Z,56.92
2019-02-28T13:51:08.810Z,56.20
2019-02-28T13:53:40.721Z,58.28
2019-02-28T13:56:10.981Z,57.53
2019-02-28T13:58:41.277Z,56.75
2019-02-28T14:01:11.596Z,56.53
2019-02-28T14:03:42.254Z,56.35
2019-02-28T14:06:18.906Z,53.68
2019-02-28T14:08:45.893Z,58.08
2019-02-28T14:11:18.595Z,58.95
2019-02-28T14:13:48.802Z,58.65
2019-02-28T14:16:19.035Z,56.42
2019-02-28T14:18:49.134Z,53.65
2019-02-28T14:21:19.311Z,54.93
2019-02-28T14:23:52.400Z,51.30
2019-02-28T14:26:21.435Z,56.80
2019-02-28T14:28:51.976Z,58.73
2019-02-28T14:31:23.470Z,56.00
2019-02-28T14:36:57.605Z,56.15
2019-02-28T14:39:27.872Z,58.40
2019-02-28T14:41:58.122Z,56.33
2019-02-28T14:44:31.750Z,55.80
2019-02-28T14:47:00.255Z,56.60
2019-02-28T14:49:30.455Z,59.63
2019-02-28T14:52:03.631Z,55.55
2019-02-28T14:54:32.883Z,60.15
2019-02-28T14:57:03.044Z,61.00
2019-02-28T14:59:33.207Z,55.75
2019-02-28T15:02:03.512Z,58.50
2019-02-28T15:04:33.705Z,58.28
2019-02-28T15:07:04.398Z,60.52
2019-02-28T15:09:35.869Z,56.77
2019-02-28T15:12:06.022Z,57.08
2019-02-28T15:14:36.633Z,56.65
2019-02-28T15:17:07.643Z,57.83
2019-02-28T15:19:38.415Z,59.70
2019-02-28T15:22:08.667Z,56.63
2019-02-28T15:24:40.490Z,56.85
2019-02-28T15:27:11.456Z,55.58
2019-02-28T15:29:42.907Z,55.10
2019-02-28T15:32:14.289Z,57.40
2019-02-28T15:34:45.123Z,56.28
2019-02-28T15:37:15.586Z,56.80
2019-02-28T15:39:46.027Z,55.38
2019-02-28T15:42:16.634Z,56.50
2019-02-28T15:44:46.793Z,57.73
2019-02-28T15:47:19.479Z,58.42
2019-02-28T15:49:48.950Z,57.10
2019-02-28T15:52:19.189Z,57.53
2019-02-28T15:54:49.205Z,56.58
2019-02-28T15:57:19.766Z,55.67
2019-02-28T15:59:50.491Z,56.13
2019-02-28T16:02:20.862Z,58.70
2019-02-28T16:04:51.101Z,58.80
2019-02-28T16:07:21.311Z,58.60
2019-02-28T16:09:54.137Z,61.37
2019-02-28T16:12:23.214Z,58.28
2019-02-28T16:14:53.734Z,59.15
2019-02-28T16:17:23.819Z,60.73
2019-02-28T16:19:56.201Z,61.10
2019-02-28T16:22:26.141Z,63.15
2019-02-28T16:24:56.350Z,62.88
2019-02-28T16:27:29.592Z,60.10
2019-02-28T16:29:58.660Z,63.28
2019-02-28T16:32:30.002Z,65.45
2019-02-28T16:35:00.440Z,64.77
2019-02-28T16:37:32.328Z,63.10
2019-02-28T16:40:03.073Z,65.42
2019-02-28T16:42:34.319Z,65.65
2019-02-28T16:45:07.438Z,65.47
2019-02-28T16:47:37.519Z,63.87
2019-02-28T16:50:10.378Z,63.85
2019-02-28T16:52:40.710Z,64.07
2019-02-28T16:55:11.908Z,60.95
2019-02-28T16:57:43.560Z,62.73
2019-02-28T17:00:15.931Z,63.90
2019-02-28T17:02:46.250Z,63.85
2019-02-28T17:05:16.483Z,61.65
2019-02-28T17:07:47.031Z,63.30
2019-02-28T17:10:25.217Z,62.20
2019-02-28T17:13:12.421Z,61.40
2019-02-28T17:16:02.626Z,61.10
2019-02-28T17:18:34.615Z,60.98
2019-02-28T17:21:05.358Z,62.17
2019-02-28T17:23:36.887Z,61.42
2019-02-28T17:26:07.963Z,62.75
2019-02-28T17:28:46.547Z,61.02
2019-02-28T17:31:37.713Z,62.23
2019-02-28T17:34:08.550Z,61.10
2019-02-28T17:36:38.748Z,62.10
2019-02-28T17:39:11.406Z,62.58
2019-02-28T17:41:41.934Z,60.83
2019-02-28T17:44:27.719Z,60.43
2019-02-28T17:47:06.955Z,66.45
2019-02-28T17:49:59.985Z,68.28
2019-02-28T17:52:43.678Z,62.70
2019-02-28T17:55:41.022Z,65.37
2019-02-28T17:58:20.198Z,59.38
2019-02-28T18:01:05.237Z,62.88
2019-02-28T18:03:53.398Z,60.67
2019-02-28T18:06:56.815Z,62.48
2019-02-28T18:09:48.407Z,64.55
2019-02-28T18:12:50.035Z,64.85
2019-02-28T18:15:25.960Z,60.35
2019-02-28T18:18:29.697Z,61.33
2019-02-28T18:21:12.354Z,64.58
2019-02-28T18:24:12.575Z,60.63
2019-02-28T18:26:50.906Z,62.05
2019-02-28T18:29:46.627Z,59.50
2019-02-28T18:32:16.804Z,62.50
2019-02-28T18:34:46.950Z,59.67
2019-02-28T18:37:17.234Z,62.78
2019-02-28T18:39:48.344Z,59.73
2019-02-28T18:42:20.027Z,61.05
2019-02-28T18:44:50.419Z,60.60
2019-02-28T18:47:20.637Z,62.93
2019-02-28T18:49:51.218Z,64.42
2019-02-28T18:52:21.730Z,64.80
2019-02-28T18:54:51.814Z,63.38
2019-02-28T18:57:22.293Z,60.63
2019-02-28T18:59:52.774Z,62.23
2019-02-28T19:02:22.920Z,61.90
2019-02-28T19:04:53.174Z,60.88
2019-02-28T19:07:23.267Z,62.90
2019-02-28T19:09:53.519Z,61.23
2019-02-28T19:12:24.147Z,63.50
2019-02-28T19:14:54.659Z,65.03
2019-02-28T19:17:24.893Z,62.50
2019-02-28T19:19:55.115Z,62.17
2019-02-28T19:22:25.190Z,64.07
2019-02-28T19:24:55.365Z,63.20
2019-02-28T19:27:25.888Z,63.63
2019-02-28T19:29:56.106Z,61.73
2019-02-28T19:32:26.215Z,64.50
2019-02-28T19:34:56.440Z,60.98
2019-02-28T19:37:26.598Z,58.13
2019-02-28T19:39:56.818Z,63.00
2019-02-28T19:42:26.989Z,60.78
2019-02-28T19:44:57.001Z,62.48
2019-02-28T19:47:27.555Z,60.20
2019-02-28T19:49:57.645Z,62.55
2019-02-28T19:52:27.791Z,62.78
2019-02-28T19:54:57.947Z,63.83
2019-02-28T19:57:28.397Z,58.73
2019-02-28T19:59:58.495Z,62.85
2019-02-28T20:02:28.709Z,61.65
2019-02-28T20:04:58.854Z,62.60
2019-02-28T20:07:29.313Z,62.00
2019-02-28T20:09:59.754Z,62.45
2019-02-28T20:12:31.155Z,63.50
2019-02-28T20:15:01.596Z,62.48
2019-02-28T20:17:32.470Z,61.88
2019-02-28T20:20:02.758Z,60.10
2019-02-28T20:22:35.160Z,62.27
2019-02-28T20:25:10.108Z,62.70
2019-02-28T20:27:40.173Z,62.78
2019-02-28T20:30:13.645Z,62.67
2019-02-28T20:32:44.240Z,64.32
2019-02-28T20:35:14.945Z,61.28
2019-02-28T20:37:45.408Z,63.83
2019-02-28T20:40:30.273Z,63.95
2019-02-28T20:43:00.487Z,61.98
2019-02-28T20:45:30.588Z,58.70
2019-02-28T20:48:00.765Z,62.88
2019-02-28T20:50:36.683Z,66.35
2019-02-28T20:53:07.021Z,66.25
2019-02-28T20:55:37.247Z,64.10
2019-02-28T20:58:07.478Z,64.07
2019-02-28T21:00:37.711Z,62.98
2019-02-28T21:03:08.203Z,62.20
2019-02-28T21:05:38.367Z,61.92
2019-02-28T21:08:08.959Z,60.40
2019-02-28T21:10:39.183Z,62.20
2019-02-28T21:13:09.400Z,63.60
2019-02-28T21:15:39.607Z,60.48
2019-02-28T21:18:10.259Z,61.10
2019-02-28T21:20:42.295Z,65.30
2019-02-28T21:23:12.310Z,65.08
2019-02-28T21:25:42.555Z,62.60
2019-02-28T21:28:12.815Z,65.40
2019-02-28T21:30:42.976Z,67.20
2019-02-28T21:33:13.145Z,66.12
2019-02-28T21:35:43.568Z,64.70
2019-02-28T21:38:14.181Z,61.90
2019-02-28T21:40:44.531Z,62.88
2019-02-28T21:43:14.767Z,61.83
2019-02-28T21:45:45.018Z,59.48
2019-02-28T21:48:15.190Z,62.80
2019-02-28T21:50:45.609Z,63.02
2019-02-28T21:53:15.824Z,61.30
2019-02-28T21:55:46.038Z,63.38
2019-02-28T21:58:16.121Z,72.95
2019-02-28T22:00:46.418Z,76.75
2019-02-28T22:03:16.515Z,76.65
2019-02-28T22:05:46.595Z,72.32
2019-02-28T22:08:17.053Z,72.35
2019-02-28T22:10:47.060Z,73.37
2019-02-28T22:13:17.348Z,71.70
2019-02-28T22:15:47.514Z,58.80
2019-02-28T22:18:17.936Z,66.97
2019-02-28T22:20:49.289Z,63.83
2019-02-28T22:23:19.840Z,63.15
2019-02-28T22:25:49.924Z,65.05
2019-02-28T22:28:19.997Z,66.12
2019-02-28T22:30:51.735Z,67.35
2019-02-28T22:33:23.545Z,66.53
2019-02-28T22:35:55.296Z,64.47
2019-02-28T22:38:25.531Z,68.30
2019-02-28T22:40:56.245Z,66.70
2019-02-28T22:43:26.441Z,66.15
2019-02-28T22:45:57.613Z,66.07
2019-02-28T22:48:28.081Z,67.50
2019-02-28T22:50:58.141Z,65.22
2019-02-28T22:53:28.425Z,67.85
2019-02-28T22:55:59.391Z,67.03
2019-02-28T22:58:29.470Z,64.45
2019-02-28T23:01:07.168Z,65.37
2019-02-28T23:03:38.804Z,67.08
2019-02-28T23:06:08.955Z,63.23
2019-02-28T23:08:39.436Z,67.27
2019-02-28T23:11:09.905Z,65.30
2019-02-28T23:13:39.938Z,62.80
2019-02-28T23:16:10.365Z,64.47
2019-02-28T23:18:40.466Z,66.12
2019-02-28T23:21:10.668Z,62.23
2019-02-28T23:23:40.873Z,67.08
2019-02-28T23:26:12.835Z,65.32
2019-02-28T23:28:54.755Z,60.98
2019-02-28T23:31:46.029Z,59.67
2019-02-28T23:34:20.314Z,58.45
2019-02-28T23:36:50.932Z,60.90
2019-02-28T23:39:21.099Z,61.15
2019-02-28T23:41:51.183Z,60.55
2019-02-28T23:44:21.394Z,61.60
2019-02-28T23:46:51.824Z,62.55
2019-02-28T23:49:21.925Z,60.43
2019-02-28T23:51:52.374Z,60.48
2019-02-28T23:54:22.536Z,61.18
2019-02-28T23:56:53.801Z,58.33
2019-02-28T23:59:23.884Z,58.10
